Florencia — IBPD — position and weather

sailwx.info

Track history (hours):
 
Tides and Currents Weather Stations Pressure Air Temp Water Temp Dewpoint Dewpoint Depression Visibility Wind Speed Wind Dir Waves Ship Positions

Florencia

Last reported at 2016-Jun-29 06:06 UTC. Time now 2016-Jun-29 09:18 UTC.
Position N 37°35' E 015°17'.

Length 186 m; draft 6.2 m.

Type: Passenger vessel. MMSI: 247105900.

Date/timePositionNaut miles runAvg speedWind from/ knotsBaromVisibWave heightAir tempDewpointWater temp
2016-Jun-29 06:06N 37°35' E 015°17'1221.9
2016-Jun-29 05:33N 37°46' E 015°23'2222.0
2016-Jun-29 04:34N 38°06' E 015°34'1616.1
2016-Jun-29 03:33N 38°22' E 015°39'2221.6
2016-Jun-29 02:33N 38°42' E 015°26'2221.5
2016-Jun-29 01:33N 39°01' E 015°14'8621.6
2016-Jun-28 21:33N 40°19' E 014°26'2221.5
2016-Jun-28 20:33N 40°39' E 014°17'11 7.7
2016-Jun-28 19:06N 40°50' E 014°16'0 0.0
2016-Jun-28 18:11N 40°50' E 014°16'0 0.0
2016-Jun-28 16:33N 40°50' E 014°16'0 0.0
2016-Jun-28 12:33N 40°50' E 014°16'0 0.0
2016-Jun-28 11:33N 40°50' E 014°16'0 0.0
2016-Jun-28 10:30N 40°50' E 014°16'0 0.0
2016-Jun-28 09:33N 40°50' E 014°16'10 9.6
2016-Jun-28 08:33N 40°41' E 014°17'10921.2
2016-Jun-28 03:23N 39°01' E 015°15'1821.6
2016-Jun-28 02:33N 38°45' E 015°25'2121.6
2016-Jun-28 01:33N 38°26' E 015°38'1716.9
2016-Jun-28 00:34N 38°09' E 015°37'2120.6
2016-Jun-27 23:33N 37°50' E 015°26'2120.7
2016-Jun-27 22:33N 37°32' E 015°15'6 0.3
2016-Jun-27 04:33N 37°28' E 015°08'2019.4
2016-Jun-27 03:33N 37°45' E 015°22'2121.0
2016-Jun-27 02:33N 38°04' E 015°32'1919.5
2016-Jun-27 01:33N 38°23' E 015°38'2120.9
2016-Jun-27 00:33N 38°41' E 015°26'2221.0
2016-Jun-26 23:29N 39°02' E 015°14'8520.8
2016-Jun-26 19:25N 40°18' E 014°26'1820.6
2016-Jun-26 18:33N 40°34' E 014°17'1616.0
2016-Jun-26 17:34N 40°50' E 014°16'0 0.0
2016-Jun-26 16:33N 40°50' E 014°16'0 0.0
2016-Jun-26 15:33N 40°50' E 014°16'0 0.0
2016-Jun-26 14:33N 40°50' E 014°16'0 0.0
2016-Jun-26 13:33N 40°50' E 014°16'0 0.0
2016-Jun-26 12:33N 40°50' E 014°16'0 0.0
2016-Jun-26 11:34N 40°50' E 014°16'0 0.0
2016-Jun-26 10:31N 40°50' E 014°16'6 3.0
2016-Jun-26 08:33N 40°45' E 014°17'11721.4
2016-Jun-26 03:05N 38°58' E 015°18'1321.2
2016-Jun-26 02:28N 38°46' E 015°26'2021.6
2016-Jun-26 01:33N 38°28' E 015°37'1616.5
2016-Jun-26 00:33N 38°12' E 015°37'2120.9
2016-Jun-25 23:33N 37°52' E 015°27'2121.1
2016-Jun-25 22:33N 37°33' E 015°16'9 0.7
2016-Jun-25 09:25N 37°29' E 015°06'0 0.1
2016-Jun-25 07:17N 37°29' E 015°06'1112.3
2016-Jun-25 06:25N 37°35' E 015°17'1821.4
2016-Jun-25 05:33N 37°52' E 015°26'2121.1
2016-Jun-25 04:33N 38°12' E 015°36'1616.5
2016-Jun-25 03:33N 38°28' E 015°34'2121.2
2016-Jun-25 02:34N 38°47' E 015°22'2221.3
2016-Jun-25 01:32N 39°06' E 015°09'2321.4
2016-Jun-25 00:26N 39°27' E 014°55'6221.4
2016-Jun-24 21:33N 40°21' E 014°17'2019.9
2016-Jun-24 20:33N 40°41' E 014°11'10 1.4
2016-Jun-24 13:30N 40°50' E 014°16'119 8.9
2016-Jun-24 00:07N 39°00' E 015°15'1322.0
2016-Jun-23 23:31N 38°48' E 015°23'2122.3
2016-Jun-23 22:34N 38°30' E 015°35'1716.8
2016-Jun-23 21:34N 38°13' E 015°37'1919.1
2016-Jun-23 20:33N 37°55' E 015°28'2121.4
2016-Jun-23 19:33N 37°35' E 015°17'9 0.7
2016-Jun-23 05:34N 37°44' E 015°22'2222.0
2016-Jun-23 04:34N 38°04' E 015°33'1717.0
2016-Jun-23 03:34N 38°21' E 015°39'2121.4
2016-Jun-23 02:34N 38°39' E 015°26'2221.6
2016-Jun-23 01:33N 38°59' E 015°13'11121.4
2016-Jun-22 20:21N 40°40' E 014°13'1113.4
2016-Jun-22 19:33N 40°50' E 014°16'0 0.0
2016-Jun-22 18:32N 40°50' E 014°16'0 0.0
2016-Jun-22 17:31N 40°50' E 014°16'0 0.0
2016-Jun-22 11:17N 40°50' E 014°16'0 0.0
2016-Jun-22 10:33N 40°50' E 014°16'0 0.0
2016-Jun-22 09:29N 40°50' E 014°16'12319.3
2016-Jun-22 03:06N 38°57' E 015°19'1321.8
2016-Jun-22 02:31N 38°46' E 015°26'2121.7
2016-Jun-22 01:33N 38°27' E 015°38'1717.1
2016-Jun-22 00:34N 38°10' E 015°37'2120.7
2016-Jun-21 23:33N 37°51' E 015°27'2121.3
2016-Jun-21 22:34N 37°32' E 015°16'8 8.4
2016-Jun-21 21:33N 37°29' E 015°06'20 1.3
2016-Jun-21 05:33N 37°46' E 015°21'2222.0
2016-Jun-21 04:33N 38°05' E 015°33'1616.4
2016-Jun-21 03:33N 38°21' E 015°39'2221.6
2016-Jun-21 02:33N 38°40' E 015°26'2321.6
2016-Jun-21 01:29N 39°01' E 015°13'11121.0
2016-Jun-20 20:12N 40°42' E 014°14'812.6
2016-Jun-20 19:33N 40°50' E 014°16'129 6.4
2016-Jun-19 23:32N 38°52' E 015°22'2221.8
2016-Jun-19 22:33N 38°32' E 015°34'1818.3
2016-Jun-19 21:34N 38°15' E 015°40'2019.8
2016-Jun-19 20:34N 37°57' E 015°29'2121.3
2016-Jun-19 19:33N 37°37' E 015°18'13 1.4
2016-Jun-19 10:11N 37°29' E 015°06'0 0.1
2016-Jun-19 06:16N 37°29' E 015°06'  
Track history (hours):
 
Tides and Currents Weather Stations Pressure Air Temp Water Temp Dewpoint Dewpoint Depression Visibility Wind Speed Wind Dir Waves Ship Positions

Florencia

Last reported at 2016-Jun-29 06:06 UTC. Time now 2016-Jun-29 09:18 UTC.
Position N 37°35' E 015°17'.

Length 186 m; draft 6.2 m.

Type: Passenger vessel. MMSI: 247105900.

Date/timePositionNaut miles runAvg speedWind from/ knotsBaromVisibWave heightAir tempDewpointWater temp
2016-Jun-29 06:06N 37°35' E 015°17'1221.9
2016-Jun-29 05:33N 37°46' E 015°23'2222.0
2016-Jun-29 04:34N 38°06' E 015°34'1616.1
2016-Jun-29 03:33N 38°22' E 015°39'2221.6
2016-Jun-29 02:33N 38°42' E 015°26'2221.5
2016-Jun-29 01:33N 39°01' E 015°14'8621.6
2016-Jun-28 21:33N 40°19' E 014°26'2221.5
2016-Jun-28 20:33N 40°39' E 014°17'11 7.7
2016-Jun-28 19:06N 40°50' E 014°16'0 0.0
2016-Jun-28 18:11N 40°50' E 014°16'0 0.0
2016-Jun-28 16:33N 40°50' E 014°16'0 0.0
2016-Jun-28 12:33N 40°50' E 014°16'0 0.0
2016-Jun-28 11:33N 40°50' E 014°16'0 0.0
2016-Jun-28 10:30N 40°50' E 014°16'0 0.0
2016-Jun-28 09:33N 40°50' E 014°16'10 9.6
2016-Jun-28 08:33N 40°41' E 014°17'10921.2
2016-Jun-28 03:23N 39°01' E 015°15'1821.6
2016-Jun-28 02:33N 38°45' E 015°25'2121.6
2016-Jun-28 01:33N 38°26' E 015°38'1716.9
2016-Jun-28 00:34N 38°09' E 015°37'2120.6
2016-Jun-27 23:33N 37°50' E 015°26'2120.7
2016-Jun-27 22:33N 37°32' E 015°15'6 0.3
2016-Jun-27 04:33N 37°28' E 015°08'2019.4
2016-Jun-27 03:33N 37°45' E 015°22'2121.0
2016-Jun-27 02:33N 38°04' E 015°32'1919.5
2016-Jun-27 01:33N 38°23' E 015°38'2120.9
2016-Jun-27 00:33N 38°41' E 015°26'2221.0
2016-Jun-26 23:29N 39°02' E 015°14'8520.8
2016-Jun-26 19:25N 40°18' E 014°26'1820.6
2016-Jun-26 18:33N 40°34' E 014°17'1616.0
2016-Jun-26 17:34N 40°50' E 014°16'0 0.0
2016-Jun-26 16:33N 40°50' E 014°16'0 0.0
2016-Jun-26 15:33N 40°50' E 014°16'0 0.0
2016-Jun-26 14:33N 40°50' E 014°16'0 0.0
2016-Jun-26 13:33N 40°50' E 014°16'0 0.0
2016-Jun-26 12:33N 40°50' E 014°16'0 0.0
2016-Jun-26 11:34N 40°50' E 014°16'0 0.0
2016-Jun-26 10:31N 40°50' E 014°16'6 3.0
2016-Jun-26 08:33N 40°45' E 014°17'11721.4
2016-Jun-26 03:05N 38°58' E 015°18'1321.2
2016-Jun-26 02:28N 38°46' E 015°26'2021.6
2016-Jun-26 01:33N 38°28' E 015°37'1616.5
2016-Jun-26 00:33N 38°12' E 015°37'2120.9
2016-Jun-25 23:33N 37°52' E 015°27'2121.1
2016-Jun-25 22:33N 37°33' E 015°16'9 0.7
2016-Jun-25 09:25N 37°29' E 015°06'0 0.1
2016-Jun-25 07:17N 37°29' E 015°06'1112.3
2016-Jun-25 06:25N 37°35' E 015°17'1821.4
2016-Jun-25 05:33N 37°52' E 015°26'2121.1
2016-Jun-25 04:33N 38°12' E 015°36'1616.5
2016-Jun-25 03:33N 38°28' E 015°34'2121.2
2016-Jun-25 02:34N 38°47' E 015°22'2221.3
2016-Jun-25 01:32N 39°06' E 015°09'2321.4
2016-Jun-25 00:26N 39°27' E 014°55'6221.4
2016-Jun-24 21:33N 40°21' E 014°17'2019.9
2016-Jun-24 20:33N 40°41' E 014°11'10 1.4
2016-Jun-24 13:30N 40°50' E 014°16'119 8.9
2016-Jun-24 00:07N 39°00' E 015°15'1322.0
2016-Jun-23 23:31N 38°48' E 015°23'2122.3
2016-Jun-23 22:34N 38°30' E 015°35'1716.8
2016-Jun-23 21:34N 38°13' E 015°37'1919.1
2016-Jun-23 20:33N 37°55' E 015°28'2121.4
2016-Jun-23 19:33N 37°35' E 015°17'9 0.7
2016-Jun-23 05:34N 37°44' E 015°22'2222.0
2016-Jun-23 04:34N 38°04' E 015°33'1717.0
2016-Jun-23 03:34N 38°21' E 015°39'2121.4
2016-Jun-23 02:34N 38°39' E 015°26'2221.6
2016-Jun-23 01:33N 38°59' E 015°13'11121.4
2016-Jun-22 20:21N 40°40' E 014°13'1113.4
2016-Jun-22 19:33N 40°50' E 014°16'0 0.0
2016-Jun-22 18:32N 40°50' E 014°16'0 0.0
2016-Jun-22 17:31N 40°50' E 014°16'0 0.0
2016-Jun-22 11:17N 40°50' E 014°16'0 0.0
2016-Jun-22 10:33N 40°50' E 014°16'0 0.0
2016-Jun-22 09:29N 40°50' E 014°16'12319.3
2016-Jun-22 03:06N 38°57' E 015°19'1321.8
2016-Jun-22 02:31N 38°46' E 015°26'2121.7
2016-Jun-22 01:33N 38°27' E 015°38'1717.1
2016-Jun-22 00:34N 38°10' E 015°37'2120.7
2016-Jun-21 23:33N 37°51' E 015°27'2121.3
2016-Jun-21 22:34N 37°32' E 015°16'8 8.4
2016-Jun-21 21:33N 37°29' E 015°06'20 1.3
2016-Jun-21 05:33N 37°46' E 015°21'2222.0
2016-Jun-21 04:33N 38°05' E 015°33'1616.4
2016-Jun-21 03:33N 38°21' E 015°39'2221.6
2016-Jun-21 02:33N 38°40' E 015°26'2321.6
2016-Jun-21 01:29N 39°01' E 015°13'11121.0
2016-Jun-20 20:12N 40°42' E 014°14'812.6
2016-Jun-20 19:33N 40°50' E 014°16'129 6.4
2016-Jun-19 23:32N 38°52' E 015°22'2221.8
2016-Jun-19 22:33N 38°32' E 015°34'1818.3
2016-Jun-19 21:34N 38°15' E 015°40'2019.8
2016-Jun-19 20:34N 37°57' E 015°29'2121.3
2016-Jun-19 19:33N 37°37' E 015°18'13 1.4
2016-Jun-19 10:11N 37°29' E 015°06'0 0.1
2016-Jun-19 06:16N 37°29' E 015°06'  

Dump ship's entire track history